Time;durP1;ratioP1;P1;durP2;ratioP2;P2;SDS_P1;SDS_P2;PMS_P1;PMS_P2;Temp;Humidity;BMP_temperature;BMP_pressure;BME280_temperature;BME280_humidity;BME280_pressure;Samples;Min_cycle;Max_cycle;Signal;HPM_P1;HPM_P2
2021/12/25 00:01:22;;;;;;;7.80;2.70;;;1.60;99.90;;;;;;6152322;23;20022;-84
2021/12/25 00:03:50;;;;;;;8.38;2.72;;;1.60;99.90;;;;;;6151670;23;20021;-84
2021/12/25 00:06:16;;;;;;;5.53;2.60;;;1.60;99.90;;;;;;6152234;23;20339;-85
2021/12/25 00:08:41;;;;;;;6.00;2.35;;;1.60;99.90;;;;;;6127318;23;20021;-84
2021/12/25 00:11:08;;;;;;;6.35;2.22;;;1.50;99.90;;;;;;6152116;23;20015;-84
2021/12/25 00:13:35;;;;;;;6.43;2.35;;;1.60;99.90;;;;;;6128132;23;20010;-84
2021/12/25 00:16:00;;;;;;;6.53;2.38;;;1.60;99.90;;;;;;6153214;23;20021;-84
2021/12/25 00:18:26;;;;;;;7.88;2.70;;;1.50;99.90;;;;;;6152160;23;20013;-84
2021/12/25 00:20:51;;;;;;;6.40;2.10;;;1.50;99.90;;;;;;6152056;23;20014;-84
2021/12/25 00:23:18;;;;;;;5.63;2.05;;;1.50;99.90;;;;;;6152500;23;20014;-84
2021/12/25 00:25:48;;;;;;;6.82;2.30;;;1.50;99.90;;;;;;6151814;23;20068;-84
2021/12/25 00:36:09;;;;;;;6.03;2.38;;;1.40;99.90;;;;;;6152830;23;20028;-84
2021/12/25 00:38:37;;;;;;;6.78;2.00;;;1.30;99.90;;;;;;6128152;23;20831;-84
2021/12/25 00:41:06;;;;;;;7.90;2.20;;;1.40;99.90;;;;;;6152492;23;20009;-84
2021/12/25 00:43:34;;;;;;;7.60;1.88;;;1.30;99.90;;;;;;6127286;23;20041;-84
2021/12/25 00:46:00;;;;;;;4.88;1.63;;;1.30;99.90;;;;;;6127729;23;20444;-84
2021/12/25 00:48:26;;;;;;;5.15;1.67;;;1.30;99.90;;;;;;6150628;23;20053;-84
2021/12/25 00:50:52;;;;;;;5.40;1.75;;;1.30;99.90;;;;;;6151299;23;20022;-85
2021/12/25 00:53:27;;;;;;;6.43;1.88;;;1.20;99.90;;;;;;6125970;23;20100;-84
2021/12/25 00:55:53;;;;;;;6.28;1.95;;;1.20;99.90;;;;;;6125095;23;20049;-84
2021/12/25 00:58:18;;;;;;;4.55;1.60;;;1.30;99.90;;;;;;6151816;23;20119;-84
2021/12/25 01:00:44;;;;;;;5.50;1.38;;;1.20;99.90;;;;;;6127003;23;20466;-83
2021/12/25 01:03:10;;;;;;;5.85;1.60;;;1.20;99.90;;;;;;6152140;23;20388;-84
2021/12/25 01:05:36;;;;;;;5.07;1.38;;;1.10;99.90;;;;;;6149750;23;20076;-84
2021/12/25 01:08:02;;;;;;;6.18;1.63;;;1.10;99.90;;;;;;6126516;23;20013;-84
2021/12/25 01:10:28;;;;;;;4.18;1.70;;;1.10;99.90;;;;;;6125720;23;20085;-84
2021/12/25 01:13:21;;;;;;;8.68;1.92;;;1.10;99.90;;;;;;6126492;23;20416;-85
2021/12/25 01:27:51;;;;;;;5.63;1.73;;;1.00;99.90;;;;;;6067388;23;20508;-84
2021/12/25 01:30:21;;;;;;;5.57;1.50;;;0.90;99.90;;;;;;6066448;23;20448;-84
2021/12/25 01:36:22;;;;;;;4.78;1.42;;;0.90;99.90;;;;;;6038269;23;20018;-84
2021/12/25 01:48:58;;;;;;;4.95;1.20;;;0.50;99.90;;;;;;6152181;23;20025;-84
2021/12/25 01:51:24;;;;;;;3.72;1.23;;;0.50;99.90;;;;;;6151231;23;20055;-84
2021/12/25 01:53:49;;;;;;;4.75;1.05;;;0.50;99.90;;;;;;6125710;23;20017;-84
2021/12/25 01:56:16;;;;;;;3.58;1.00;;;0.40;99.90;;;;;;6150690;23;20013;-84
2021/12/25 01:58:42;;;;;;;4.38;0.80;;;0.40;99.90;;;;;;6151069;23;20482;-84
2021/12/25 02:01:09;;;;;;;3.45;1.00;;;0.40;99.90;;;;;;6152256;23;20013;-83
2021/12/25 02:03:37;;;;;;;4.78;1.00;;;0.30;99.90;;;;;;6125562;23;20031;-83
2021/12/25 02:06:05;;;;;;;4.55;0.70;;;0.30;99.90;;;;;;6149723;23;20018;-83
2021/12/25 02:08:31;;;;;;;4.57;0.70;;;0.20;99.90;;;;;;6151568;23;20016;-83
2021/12/25 02:10:57;;;;;;;7.00;0.80;;;0.20;99.90;;;;;;6149834;23;20337;-83
2021/12/25 02:13:24;;;;;;;3.05;0.77;;;0.20;99.90;;;;;;6150688;23;20639;-84
2021/12/25 02:15:52;;;;;;;4.38;0.80;;;0.10;99.90;;;;;;6125948;23;20080;-83
2021/12/25 02:18:31;;;;;;;4.97;0.80;;;0.00;99.90;;;;;;6150548;23;20009;-83
2021/12/25 02:21:40;;;;;;;3.20;1.55;;;0.00;99.90;;;;;;6149129;23;20328;-83
2021/12/25 02:23:48;;;;;;;3.60;0.70;;;0.00;99.90;;;;;;6133646;23;20502;-83
2021/12/25 02:26:13;;;;;;;4.75;0.70;;;-0.10;99.90;;;;;;6150190;23;20021;-83
2021/12/25 02:28:40;;;;;;;4.13;0.70;;;-0.10;99.90;;;;;;6149784;23;20017;-84
2021/12/25 02:31:08;;;;;;;3.05;0.68;;;-0.20;99.90;;;;;;6150019;23;20014;-83
2021/12/25 02:33:34;;;;;;;1.00;0.40;;;-0.20;99.90;;;;;;6149685;23;20017;-83
2021/12/25 02:36:00;;;;;;;3.55;0.52;;;-0.30;99.90;;;;;;6149619;23;20017;-83
2021/12/25 02:38:26;;;;;;;4.05;0.55;;;-0.30;99.90;;;;;;6148813;23;20124;-83
2021/12/25 02:40:52;;;;;;;4.03;0.93;;;-0.40;99.90;;;;;;6148241;23;20006;-84
2021/12/25 02:43:18;;;;;;;1.67;0.40;;;-0.40;99.90;;;;;;6148910;23;20096;-83
2021/12/25 02:45:44;;;;;;;3.58;0.40;;;-0.40;99.90;;;;;;6149983;23;20017;-83
2021/12/25 02:48:14;;;;;;;0.65;0.30;;;-0.50;99.90;;;;;;6149506;23;20324;-83
2021/12/25 02:50:40;;;;;;;4.30;1.40;;;-0.50;99.90;;;;;;6124257;23;20025;-83
2021/12/25 02:53:08;;;;;;;2.75;0.75;;;-0.60;99.90;;;;;;6148783;23;20014;-83
2021/12/25 02:55:35;;;;;;;2.22;0.45;;;-0.60;99.90;;;;;;6124201;23;20017;-83
2021/12/25 02:58:02;;;;;;;2.70;0.45;;;-0.60;99.90;;;;;;6149378;23;20013;-83
2021/12/25 03:00:35;;;;;;;2.15;0.40;;;-0.70;99.90;;;;;;6124750;23;20029;-83
2021/12/25 03:03:03;;;;;;;2.00;0.50;;;-0.70;99.90;;;;;;6125468;23;20397;-83
2021/12/25 03:05:29;;;;;;;1.85;0.38;;;-0.70;99.90;;;;;;6147968;23;20102;-83
2021/12/25 03:07:55;;;;;;;3.95;0.50;;;-0.70;99.90;;;;;;6149321;23;20023;-83
2021/12/25 03:10:20;;;;;;;2.67;0.40;;;-0.80;99.90;;;;;;6122722;23;20017;-83
2021/12/25 03:12:53;;;;;;;1.67;0.40;;;-0.80;99.90;;;;;;6149628;23;20025;-83
2021/12/25 03:15:31;;;;;;;5.80;0.50;;;-0.80;99.90;;;;;;6124178;23;20069;-83
2021/12/25 03:17:57;;;;;;;4.60;0.50;;;-0.90;99.90;;;;;;6124329;23;20020;-83
2021/12/25 03:20:24;;;;;;;5.38;0.65;;;-0.90;99.90;;;;;;6122464;23;20068;-83
2021/12/25 03:22:50;;;;;;;1.20;0.45;;;-0.90;99.90;;;;;;6148704;23;20452;-83
2021/12/25 03:25:17;;;;;;;1.70;0.30;;;-0.90;99.90;;;;;;6147385;23;20026;-83
2021/12/25 03:27:45;;;;;;;4.38;0.65;;;-1.00;99.90;;;;;;6149082;23;20059;-83
2021/12/25 03:30:16;;;;;;;2.42;0.40;;;-1.00;99.90;;;;;;6124251;23;20018;-83
2021/12/25 03:32:44;;;;;;;1.83;0.32;;;-1.00;99.90;;;;;;6148946;23;20014;-83
2021/12/25 03:35:10;;;;;;;1.30;0.30;;;-1.10;99.90;;;;;;6149554;23;20345;-83
2021/12/25 03:37:36;;;;;;;2.85;0.32;;;-1.10;99.90;;;;;;6149567;23;20024;-83
2021/12/25 03:40:03;;;;;;;6.45;0.40;;;-1.10;99.90;;;;;;6147685;23;20344;-83
2021/12/25 03:42:28;;;;;;;3.25;0.40;;;-1.10;99.90;;;;;;6122826;23;20096;-82
2021/12/25 03:44:54;;;;;;;0.90;0.30;;;-1.20;99.90;;;;;;6148366;23;20498;-82
2021/12/25 03:47:34;;;;;;;1.52;0.70;;;-1.20;99.90;;;;;;6124192;23;20092;-83
2021/12/25 03:58:17;;;;;;;3.85;1.20;;;-1.30;99.90;;;;;;6149104;23;20021;-82
2021/12/25 04:00:45;;;;;;;2.70;0.43;;;-1.30;99.90;;;;;;6148315;23;20021;-83
2021/12/25 04:03:19;;;;;;;1.55;0.25;;;-1.30;99.90;;;;;;6148137;23;20399;-82
2021/12/25 04:05:47;;;;;;;3.28;0.25;;;-1.40;99.90;;;;;;6123999;23;20039;-82
2021/12/25 04:08:15;;;;;;;1.63;0.30;;;-1.40;99.90;;;;;;6148586;23;20017;-82
2021/12/25 04:10:44;;;;;;;3.17;0.40;;;-1.40;99.90;;;;;;6122373;23;20018;-83
2021/12/25 04:13:15;;;;;;;2.53;0.30;;;-1.50;99.90;;;;;;6147992;23;20017;-83
2021/12/25 04:15:41;;;;;;;1.23;0.30;;;-1.50;99.90;;;;;;6148543;23;20010;-82
2021/12/25 04:18:07;;;;;;;2.20;0.38;;;-1.50;99.90;;;;;;6148197;23;20112;-82
2021/12/25 04:20:34;;;;;;;3.15;0.30;;;-1.50;99.90;;;;;;6148247;23;20084;-82
2021/12/25 04:23:06;;;;;;;1.65;0.30;;;-1.50;99.90;;;;;;6148650;23;20021;-83
2021/12/25 04:25:34;;;;;;;0.57;0.20;;;-1.60;99.90;;;;;;6147024;23;20060;-83
2021/12/25 04:28:08;;;;;;;1.45;0.22;;;-1.60;99.90;;;;;;6147337;23;20021;-82
2021/12/25 04:30:48;;;;;;;1.00;0.35;;;-1.60;99.90;;;;;;6122961;23;20071;-82
2021/12/25 05:03:09;;;;;;;4.28;0.20;;;-2.00;99.90;;;;;;6147622;23;20068;-81
2021/12/25 05:05:35;;;;;;;1.08;0.20;;;-2.00;99.90;;;;;;6147771;23;20013;-81
2021/12/25 05:08:01;;;;;;;2.22;0.30;;;-2.10;99.90;;;;;;6147310;23;20013;-82
2021/12/25 05:10:27;;;;;;;0.38;0.15;;;-2.10;99.90;;;;;;6121595;23;20403;-81
2021/12/25 05:12:52;;;;;;;1.30;0.30;;;-2.10;99.90;;;;;;6148056;23;20041;-82
2021/12/25 05:15:18;;;;;;;1.45;0.28;;;-2.20;99.90;;;;;;6147564;23;20014;-82
2021/12/25 05:17:44;;;;;;;3.03;0.35;;;-2.20;99.90;;;;;;6147275;23;20009;-81
2021/12/25 05:20:10;;;;;;;2.28;0.20;;;-2.20;99.90;;;;;;6122764;23;20071;-82
2021/12/25 05:22:35;;;;;;;0.95;0.10;;;-2.20;99.90;;;;;;6122455;23;20027;-82
2021/12/25 05:25:01;;;;;;;1.33;0.20;;;-2.20;99.90;;;;;;6146670;23;20018;-82
2021/12/25 05:27:27;;;;;;;1.70;0.47;;;-2.20;99.90;;;;;;6147440;23;20080;-82
2021/12/25 05:29:53;;;;;;;0.85;0.13;;;-2.30;99.90;;;;;;6122753;23;20041;-82
2021/12/25 05:32:19;;;;;;;2.42;0.20;;;-2.30;99.90;;;;;;6147305;23;20053;-82
2021/12/25 05:34:45;;;;;;;3.30;0.20;;;-2.30;99.90;;;;;;6147401;23;20124;-82
2021/12/25 05:37:11;;;;;;;0.98;0.20;;;-2.40;99.90;;;;;;6147381;23;20025;-82
2021/12/25 05:39:39;;;;;;;2.28;0.25;;;-2.40;99.90;;;;;;6121784;23;20108;-82
2021/12/25 05:42:05;;;;;;;2.15;0.30;;;-2.40;99.90;;;;;;6123081;23;20017;-82
2021/12/25 05:44:30;;;;;;;0.85;0.20;;;-2.40;99.90;;;;;;6148065;23;20024;-82
2021/12/25 05:46:56;;;;;;;3.85;0.40;;;-2.50;99.90;;;;;;6123304;23;20351;-82
2021/12/25 05:49:22;;;;;;;1.83;0.30;;;-2.50;99.90;;;;;;6122949;23;20105;-82
2021/12/25 05:51:47;;;;;;;0.77;0.28;;;-2.50;99.90;;;;;;6149292;23;20512;-83
2021/12/25 05:54:13;;;;;;;1.25;0.30;;;-2.50;99.90;;;;;;6148160;23;20440;-82
2021/12/25 05:56:38;;;;;;;1.40;0.22;;;-2.50;99.90;;;;;;6148857;23;20018;-82
2021/12/25 05:59:04;;;;;;;3.80;0.30;;;-2.50;99.90;;;;;;6148920;23;20013;-82
2021/12/25 06:01:30;;;;;;;1.10;0.20;;;-2.50;99.90;;;;;;6148500;23;20430;-81
2021/12/25 06:03:56;;;;;;;3.30;0.40;;;-2.60;99.90;;;;;;6149286;23;20065;-82
2021/12/25 06:06:23;;;;;;;2.58;0.20;;;-2.60;99.90;;;;;;6149895;23;20024;-82
2021/12/25 06:08:48;;;;;;;1.17;0.30;;;-2.60;99.90;;;;;;6149421;23;20333;-82
2021/12/25 06:11:16;;;;;;;1.52;0.20;;;-2.60;99.90;;;;;;6124961;23;20021;-82
2021/12/25 06:13:54;;;;;;;1.58;0.30;;;-2.60;99.90;;;;;;6148718;23;19997;-82
2021/12/25 06:16:20;;;;;;;2.05;0.30;;;-2.60;99.90;;;;;;6124888;23;20017;-81
2021/12/25 06:18:46;;;;;;;0.77;0.10;;;-2.60;99.90;;;;;;6149820;23;20022;-81
2021/12/25 06:21:12;;;;;;;0.98;0.20;;;-2.60;99.90;;;;;;6125502;23;20082;-82
2021/12/25 06:23:37;;;;;;;2.45;0.30;;;-2.60;99.90;;;;;;6148986;23;20014;-82
2021/12/25 06:26:03;;;;;;;3.40;0.20;;;-2.70;99.90;;;;;;6123709;23;20443;-82
2021/12/25 06:28:29;;;;;;;1.35;0.35;;;-2.70;99.90;;;;;;6150565;23;20009;-81
2021/12/25 06:30:54;;;;;;;1.52;0.47;;;-2.70;99.90;;;;;;6128043;23;20086;-82
2021/12/25 06:33:20;;;;;;;1.50;0.30;;;-2.70;99.90;;;;;;6151477;23;20018;-82
2021/12/25 06:35:45;;;;;;;0.52;0.17;;;-2.70;99.90;;;;;;6127687;23;20009;-81
2021/12/25 06:38:11;;;;;;;1.15;0.30;;;-2.70;99.90;;;;;;6127391;23;20013;-82
2021/12/25 06:40:37;;;;;;;2.28;0.30;;;-2.70;99.90;;;;;;6151312;23;20060;-82
2021/12/25 06:43:02;;;;;;;1.05;0.25;;;-2.80;99.90;;;;;;6153072;23;20021;-82
2021/12/25 06:45:28;;;;;;;2.10;0.40;;;-2.80;99.90;;;;;;6152283;23;20028;-81
2021/12/25 06:47:54;;;;;;;0.88;0.22;;;-2.80;99.90;;;;;;6152587;23;20021;-82
2021/12/25 06:50:20;;;;;;;2.22;0.30;;;-2.80;99.90;;;;;;6127090;23;20069;-82
2021/12/25 06:52:45;;;;;;;1.17;0.40;;;-2.90;99.90;;;;;;6152918;23;20045;-81
2021/12/25 06:55:13;;;;;;;0.68;0.25;;;-2.90;99.90;;;;;;6151501;23;20075;-81
2021/12/25 06:57:46;;;;;;;4.22;0.30;;;-2.90;99.90;;;;;;6152817;23;20329;-81
2021/12/25 07:00:12;;;;;;;1.30;0.20;;;-2.90;99.90;;;;;;6152731;23;20092;-82
2021/12/25 07:02:38;;;;;;;1.00;0.10;;;-2.90;99.90;;;;;;6151188;23;20096;-81
2021/12/25 07:05:04;;;;;;;1.05;0.20;;;-2.90;99.90;;;;;;6151058;23;20021;-81
2021/12/25 07:07:29;;;;;;;1.95;0.20;;;-2.90;99.90;;;;;;6151483;23;20013;-81
2021/12/25 07:09:55;;;;;;;0.47;0.10;;;-2.90;99.90;;;;;;6149927;23;20317;-81
2021/12/25 07:12:24;;;;;;;0.90;0.20;;;-3.00;99.90;;;;;;6151623;23;20017;-81
2021/12/25 07:14:49;;;;;;;0.60;0.20;;;-3.00;99.90;;;;;;6128133;23;20476;-81
2021/12/25 07:17:15;;;;;;;0.90;0.20;;;-3.00;99.90;;;;;;6152697;23;20017;-81
2021/12/25 07:19:40;;;;;;;0.47;0.13;;;-3.00;99.90;;;;;;6152479;23;20017;-81
2021/12/25 07:22:06;;;;;;;1.13;0.10;;;-3.00;99.90;;;;;;6151984;23;20035;-81
2021/12/25 07:24:32;;;;;;;0.90;0.13;;;-3.10;99.90;;;;;;6151062;23;20057;-81
2021/12/25 07:26:58;;;;;;;1.38;0.10;;;-3.10;99.90;;;;;;6127116;23;20033;-82
2021/12/25 07:29:24;;;;;;;0.60;0.10;;;-3.10;99.90;;;;;;6153474;23;20013;-80
2021/12/25 07:31:49;;;;;;;1.23;0.20;;;-3.10;99.90;;;;;;6153075;23;20485;-81
2021/12/25 07:34:15;;;;;;;1.65;0.15;;;-3.10;99.90;;;;;;6152987;23;20014;-82
2021/12/25 07:36:41;;;;;;;1.70;0.10;;;-3.10;99.90;;;;;;6152869;23;20028;-81
2021/12/25 07:39:06;;;;;;;4.45;0.20;;;-3.10;99.90;;;;;;6150532;23;20031;-81
2021/12/25 07:41:32;;;;;;;1.42;0.10;;;-3.20;99.90;;;;;;6128170;23;20010;-81
2021/12/25 07:43:59;;;;;;;3.80;0.10;;;-3.20;99.90;;;;;;6152905;23;20021;-81
2021/12/25 07:46:26;;;;;;;3.03;0.13;;;-3.20;99.90;;;;;;6152482;23;20021;-81
2021/12/25 07:48:52;;;;;;;2.60;0.15;;;-3.20;99.90;;;;;;6152565;23;20111;-82
2021/12/25 07:51:18;;;;;;;0.95;0.10;;;-3.20;99.90;;;;;;6129788;23;20021;-81
2021/12/25 07:53:44;;;;;;;0.95;0.20;;;-3.20;99.90;;;;;;6153802;23;20017;-81
2021/12/25 07:56:11;;;;;;;1.30;0.20;;;-3.20;99.90;;;;;;6127358;23;20026;-81
2021/12/25 07:58:37;;;;;;;1.17;0.10;;;-3.30;99.90;;;;;;6152668;23;20051;-81
2021/12/25 08:01:03;;;;;;;3.58;0.40;;;-3.30;99.90;;;;;;6154079;23;20017;-81
2021/12/25 08:03:28;;;;;;;0.05;0.00;;;-3.30;99.90;;;;;;6152792;23;20014;-82
2021/12/25 08:05:54;;;;;;;0.43;0.10;;;-3.30;99.90;;;;;;6150823;23;20010;-81
2021/12/25 08:08:19;;;;;;;1.05;0.10;;;-3.30;99.90;;;;;;6150665;23;20010;-81
2021/12/25 08:10:46;;;;;;;0.70;0.15;;;-3.30;99.90;;;;;;6125021;23;20025;-81
2021/12/25 08:13:13;;;;;;;0.45;0.10;;;-3.30;99.90;;;;;;6125984;23;20089;-81
2021/12/25 08:15:40;;;;;;;0.52;0.10;;;-3.40;99.90;;;;;;6124198;23;20080;-81
2021/12/25 08:18:06;;;;;;;2.85;0.17;;;-3.30;99.90;;;;;;6149973;23;20036;-81
2021/12/25 08:20:34;;;;;;;1.45;0.20;;;-3.30;99.90;;;;;;6150249;23;20450;-81
2021/12/25 08:22:59;;;;;;;3.20;0.20;;;-3.40;99.90;;;;;;6125165;23;20040;-81
2021/12/25 08:25:25;;;;;;;0.50;0.20;;;-3.30;99.90;;;;;;6124381;23;20017;-81
2021/12/25 08:27:51;;;;;;;1.17;0.38;;;-3.30;99.90;;;;;;6125835;23;20339;-81
2021/12/25 08:30:19;;;;;;;1.17;0.25;;;-3.40;99.90;;;;;;6150094;23;20024;-82
2021/12/25 08:32:46;;;;;;;1.63;0.32;;;-3.40;99.90;;;;;;6150328;23;20010;-81
2021/12/25 08:35:15;;;;;;;1.17;0.30;;;-3.30;99.90;;;;;;6150558;23;20064;-81
2021/12/25 08:37:44;;;;;;;2.15;0.20;;;-3.30;99.90;;;;;;6125785;23;20395;-81
2021/12/25 08:40:14;;;;;;;1.08;0.10;;;-3.30;99.90;;;;;;6123915;23;20069;-81
2021/12/25 08:42:46;;;;;;;1.30;0.20;;;-3.20;99.90;;;;;;6125857;23;20024;-81
2021/12/25 08:47:58;;;;;;;4.22;0.20;;;-3.20;99.90;;;;;;6149224;23;20021;-81
2021/12/25 08:50:24;;;;;;;0.47;0.10;;;-3.20;99.90;;;;;;6123741;23;20071;-81
2021/12/25 08:52:49;;;;;;;0.43;0.30;;;-3.20;99.90;;;;;;6143622;23;20488;-81
2021/12/25 08:55:15;;;;;;;0.30;0.10;;;-3.20;99.90;;;;;;6149018;23;20032;-81
2021/12/25 08:57:41;;;;;;;0.93;0.30;;;-3.20;99.90;;;;;;6150044;23;20014;-81
2021/12/25 09:00:08;;;;;;;2.60;0.20;;;-3.20;99.90;;;;;;6125467;23;20021;-82
2021/12/25 09:02:34;;;;;;;1.67;0.17;;;-3.10;99.90;;;;;;6149728;23;20096;-82
2021/12/25 09:05:00;;;;;;;3.00;0.20;;;-3.10;99.90;;;;;;6123969;23;20073;-82
2021/12/25 09:07:25;;;;;;;0.98;0.20;;;-3.10;99.90;;;;;;6150402;23;20238;-82
2021/12/25 09:09:51;;;;;;;2.58;0.28;;;-3.00;99.90;;;;;;6148446;23;20021;-82
2021/12/25 09:12:20;;;;;;;1.48;0.20;;;-3.00;99.90;;;;;;6125355;23;20017;-81
2021/12/25 09:14:46;;;;;;;0.55;0.13;;;-3.00;99.90;;;;;;6125673;23;20005;-81
2021/12/25 09:17:13;;;;;;;1.60;0.10;;;-3.00;99.90;;;;;;6149703;23;20041;-81
2021/12/25 09:19:39;;;;;;;2.28;0.10;;;-3.00;99.90;;;;;;6124301;23;20024;-81
2021/12/25 09:22:07;;;;;;;1.00;0.10;;;-2.90;99.90;;;;;;6149608;23;20049;-82
2021/12/25 09:24:34;;;;;;;0.45;0.10;;;-2.90;99.90;;;;;;6147532;23;20021;-82
2021/12/25 09:27:00;;;;;;;1.33;0.35;;;-2.90;99.90;;;;;;6124582;23;20014;-82
2021/12/25 09:29:25;;;;;;;1.73;0.13;;;-2.90;99.90;;;;;;6148370;23;20021;-81
2021/12/25 09:31:51;;;;;;;1.33;0.40;;;-2.80;99.90;;;;;;6124604;23;20009;-81
2021/12/25 09:34:17;;;;;;;0.73;0.20;;;-2.80;99.90;;;;;;6123324;23;20444;-82
2021/12/25 09:36:43;;;;;;;1.60;0.30;;;-2.80;99.90;;;;;;6148535;23;20344;-82
2021/12/25 09:39:09;;;;;;;0.93;0.30;;;-2.80;99.90;;;;;;6146170;23;20354;-82
2021/12/25 09:41:34;;;;;;;1.02;0.30;;;-2.70;99.90;;;;;;6148772;23;20013;-82
2021/12/25 09:44:04;;;;;;;3.53;0.30;;;-2.70;99.90;;;;;;6148847;23;20363;-82
2021/12/25 09:46:29;;;;;;;0.85;0.20;;;-2.70;99.90;;;;;;6124080;23;20026;-82
2021/12/25 09:48:55;;;;;;;0.98;0.10;;;-2.60;99.90;;;;;;6148913;23;20013;-82
2021/12/25 09:51:21;;;;;;;3.88;0.20;;;-2.50;99.90;;;;;;6148952;23;20021;-82
2021/12/25 09:54:06;;;;;;;1.30;0.10;;;-2.40;99.90;;;;;;6123670;23;20092;-82
2021/12/25 09:56:33;;;;;;;5.10;0.30;;;-2.40;99.90;;;;;;6147908;23;20405;-82
2021/12/25 09:58:59;;;;;;;0.65;0.10;;;-2.30;99.90;;;;;;6149530;23;20016;-82
2021/12/25 10:01:50;;;;;;;2.47;0.40;;;-2.30;99.90;;;;;;6146367;23;20017;-83
2021/12/25 10:04:38;;;;;;;0.52;0.22;;;-2.30;99.90;;;;;;6126673;23;20017;-82
2021/12/25 10:07:22;;;;;;;2.13;0.20;;;-2.20;99.90;;;;;;6149808;23;20013;-82
2021/12/25 10:09:54;;;;;;;0.68;0.20;;;-2.10;99.90;;;;;;6149597;23;20507;-82
2021/12/25 10:12:20;;;;;;;2.07;0.20;;;-2.10;99.90;;;;;;6125694;23;20022;-82
2021/12/25 10:14:53;;;;;;;4.38;0.20;;;-2.00;99.90;;;;;;6126759;23;20089;-81
2021/12/25 10:17:25;;;;;;;3.22;0.40;;;-2.00;99.90;;;;;;6150725;23;20010;-81
2021/12/25 10:20:12;;;;;;;1.33;0.13;;;-2.00;99.90;;;;;;6150144;23;20021;-82
2021/12/25 10:22:58;;;;;;;3.15;0.20;;;-1.90;99.90;;;;;;6126988;23;20459;-82
2021/12/25 10:25:31;;;;;;;1.80;0.25;;;-1.90;99.90;;;;;;6149210;23;20118;-82
2021/12/25 10:28:00;;;;;;;2.67;0.15;;;-1.90;99.90;;;;;;6148958;23;20072;-82
2021/12/25 10:30:26;;;;;;;0.65;0.10;;;-1.90;99.90;;;;;;6126976;23;20463;-82
2021/12/25 10:32:52;;;;;;;2.88;0.30;;;-1.90;99.90;;;;;;6151236;23;20092;-82
2021/12/25 10:35:27;;;;;;;1.00;0.20;;;-1.80;99.90;;;;;;6150739;23;20055;-82
2021/12/25 10:37:54;;;;;;;3.15;0.20;;;-1.80;99.90;;;;;;6125741;23;20014;-82
2021/12/25 10:40:26;;;;;;;1.50;0.40;;;-1.70;99.90;;;;;;6125488;23;20017;-82
2021/12/25 10:42:55;;;;;;;5.47;0.40;;;-1.50;99.90;;;;;;6150091;23;20013;-82
2021/12/25 10:45:22;;;;;;;2.42;0.38;;;-1.00;99.70;;;;;;6150983;23;20568;-82
2021/12/25 10:48:06;;;;;;;1.48;0.20;;;-0.30;95.20;;;;;;6150575;23;20017;-82
2021/12/25 10:50:42;;;;;;;2.72;0.20;;;0.30;91.80;;;;;;6149445;23;20045;-82
2021/12/25 10:53:37;;;;;;;1.27;0.17;;;0.80;88.50;;;;;;6150158;23;20017;-82
2021/12/25 10:56:15;;;;;;;2.67;0.20;;;1.30;85.50;;;;;;6125148;23;20013;-82
2021/12/25 10:58:43;;;;;;;0.80;0.10;;;1.60;82.00;;;;;;6151442;23;20415;-82
2021/12/25 11:01:11;;;;;;;0.40;0.17;;;1.90;80.50;;;;;;6127555;23;20020;-82
2021/12/25 11:03:41;;;;;;;1.80;0.22;;;2.10;78.30;;;;;;6151142;23;20013;-82
2021/12/25 11:06:17;;;;;;;1.50;0.28;;;2.30;77.50;;;;;;6149151;23;20052;-82
2021/12/25 11:08:44;;;;;;;1.30;0.10;;;2.40;76.80;;;;;;6144914;23;20040;-82
2021/12/25 11:11:12;;;;;;;1.67;0.30;;;2.70;77.00;;;;;;6147736;23;20013;-82
2021/12/25 11:13:41;;;;;;;1.65;0.60;;;2.80;75.50;;;;;;6125144;23;20020;-82
2021/12/25 11:16:21;;;;;;;1.85;0.20;;;2.90;74.30;;;;;;6125090;23;20044;-82
2021/12/25 11:19:15;;;;;;;2.92;0.30;;;3.10;74.70;;;;;;6150881;23;20018;-82
2021/12/25 11:21:43;;;;;;;2.17;0.30;;;3.20;73.30;;;;;;6151075;23;20088;-82
2021/12/25 11:24:19;;;;;;;0.88;0.20;;;3.40;72.70;;;;;;6150160;23;20013;-82
2021/12/25 11:26:58;;;;;;;1.60;0.30;;;3.70;72.90;;;;;;6150578;23;20013;-82
2021/12/25 11:29:26;;;;;;;1.17;0.20;;;3.60;71.10;;;;;;6125847;23;20401;-82
2021/12/25 11:31:54;;;;;;;2.97;0.20;;;3.80;71.40;;;;;;6155472;23;20005;-83
2021/12/25 11:34:21;;;;;;;1.20;0.22;;;3.80;71.50;;;;;;6150279;23;20065;-83
2021/12/25 11:36:50;;;;;;;3.47;0.30;;;3.90;71.70;;;;;;6125173;23;20451;-83
2021/12/25 11:39:21;;;;;;;1.35;0.20;;;4.20;70.50;;;;;;6148176;23;20080;-83
2021/12/25 11:41:49;;;;;;;1.10;0.30;;;4.30;69.50;;;;;;6149990;23;20048;-83
2021/12/25 11:44:42;;;;;;;1.85;0.30;;;4.40;68.20;;;;;;6150234;23;20017;-82
2021/12/25 11:47:28;;;;;;;1.85;0.20;;;4.70;69.20;;;;;;6150752;23;20017;-83
2021/12/25 11:49:56;;;;;;;1.65;0.40;;;4.70;67.20;;;;;;6125200;23;20037;-83
2021/12/25 11:52:26;;;;;;;3.15;0.40;;;4.70;68.00;;;;;;6150184;23;20018;-83
2021/12/25 11:57:49;;;;;;;2.13;0.70;;;5.20;66.70;;;;;;6149356;23;20033;-82
2021/12/25 12:00:37;;;;;;;2.85;0.50;;;5.40;66.10;;;;;;6125426;23;20475;-82
2021/12/25 12:03:04;;;;;;;1.77;0.35;;;5.50;65.00;;;;;;6126280;23;20144;-83
2021/12/25 12:05:32;;;;;;;1.33;0.40;;;5.60;64.80;;;;;;6149362;23;20144;-83
2021/12/25 12:08:07;;;;;;;1.42;0.22;;;5.80;64.60;;;;;;6147609;23;20060;-83
2021/12/25 12:10:55;;;;;;;1.77;0.30;;;6.00;65.30;;;;;;6147646;23;20049;-83
2021/12/25 12:13:30;;;;;;;2.58;0.38;;;6.20;62.30;;;;;;6124075;23;20010;-83
2021/12/25 12:15:59;;;;;;;1.88;0.30;;;6.40;63.70;;;;;;6125860;23;20013;-83
2021/12/25 12:18:25;;;;;;;1.77;0.40;;;6.30;63.40;;;;;;6149426;23;20455;-83
2021/12/25 12:20:52;;;;;;;0.93;0.22;;;6.40;61.90;;;;;;6149594;23;20017;-82
2021/12/25 12:26:44;;;;;;;1.83;0.30;;;6.70;61.50;;;;;;6149081;23;20032;-83
2021/12/25 12:29:12;;;;;;;1.50;0.40;;;6.90;61.40;;;;;;6124804;23;20023;-82
2021/12/25 12:31:43;;;;;;;0.38;0.20;;;7.00;61.00;;;;;;6126894;23;20036;-83
2021/12/25 12:34:28;;;;;;;3.88;0.30;;;7.20;61.00;;;;;;6125341;23;20025;-83
2021/12/25 12:37:14;;;;;;;1.15;0.30;;;7.20;60.10;;;;;;6106520;23;20009;-83
2021/12/25 12:40:07;;;;;;;1.48;0.30;;;7.30;60.30;;;;;;6125342;23;20024;-83
2021/12/25 12:42:52;;;;;;;1.92;0.30;;;7.40;60.20;;;;;;6136715;23;20021;-83
2021/12/25 12:45:19;;;;;;;0.40;0.20;;;7.40;59.80;;;;;;6127340;23;20332;-83
2021/12/25 12:48:20;;;;;;;1.02;0.30;;;7.40;60.80;;;;;;6151074;23;20478;-83
2021/12/25 12:50:49;;;;;;;2.13;0.30;;;7.40;59.20;;;;;;6151478;23;20014;-82
2021/12/25 12:53:16;;;;;;;3.15;0.25;;;7.10;60.10;;;;;;6150384;23;20021;-82
2021/12/25 12:55:44;;;;;;;2.83;0.40;;;6.70;58.70;;;;;;6123980;23;20037;-82
2021/12/25 12:58:14;;;;;;;2.28;0.38;;;6.40;57.80;;;;;;6126477;23;20448;-82
2021/12/25 13:00:47;;;;;;;0.70;0.20;;;6.30;58.70;;;;;;6125295;23;20032;-82
2021/12/25 13:03:13;;;;;;;;;;;6.10;59.10;;;;;;6151723;23;20018;-82
2021/12/25 13:05:44;;;;;;;2.03;0.40;;;5.50;59.00;;;;;;6125134;23;19924;-82
2021/12/25 13:08:17;;;;;;;1.70;0.40;;;4.80;63.10;;;;;;6150821;23;20005;-82
2021/12/25 13:10:50;;;;;;;1.60;0.35;;;4.00;63.20;;;;;;6149074;23;20068;-82
2021/12/25 13:13:29;;;;;;;1.48;0.30;;;3.30;64.20;;;;;;6127155;23;20010;-82
2021/12/25 13:16:03;;;;;;;2.03;0.40;;;2.70;65.60;;;;;;6122810;23;20168;-81
2021/12/25 13:18:34;;;;;;;1.95;0.40;;;2.30;66.90;;;;;;6123961;23;20021;-82
2021/12/25 13:21:01;;;;;;;1.98;0.30;;;1.90;67.60;;;;;;6147070;23;20104;-82
2021/12/25 13:23:36;;;;;;;1.40;0.30;;;1.60;68.60;;;;;;6123367;23;20021;-82
2021/12/25 13:26:05;;;;;;;4.47;0.60;;;1.40;69.50;;;;;;6147304;23;20092;-82
2021/12/25 13:28:33;;;;;;;2.08;0.30;;;1.20;69.50;;;;;;6149184;23;20121;-82
2021/12/25 13:31:12;;;;;;;1.55;0.70;;;1.10;70.10;;;;;;6149266;23;20045;-82
2021/12/25 13:33:47;;;;;;;0.73;0.38;;;0.90;70.90;;;;;;6151180;23;20456;-82
2021/12/25 13:36:20;;;;;;;2.63;0.47;;;0.90;71.30;;;;;;6125834;23;20010;-82
2021/12/25 13:39:03;;;;;;;2.28;0.30;;;0.80;71.80;;;;;;6125799;23;20013;-82
2021/12/25 13:41:38;;;;;;;1.77;0.40;;;0.70;72.10;;;;;;6151028;23;20013;-82
2021/12/25 13:44:12;;;;;;;5.85;0.50;;;0.60;70.50;;;;;;6148699;23;20009;-82
2021/12/25 13:46:48;;;;;;;2.35;0.63;;;0.50;71.60;;;;;;6125039;23;20017;-82
2021/12/25 13:49:35;;;;;;;3.60;0.40;;;0.50;72.20;;;;;;6149849;23;20021;-82
2021/12/25 13:52:11;;;;;;;2.08;0.28;;;0.40;72.30;;;;;;6149225;23;20459;-82
2021/12/25 13:54:59;;;;;;;0.95;0.22;;;0.30;72.70;;;;;;6147633;23;20049;-82
2021/12/25 13:57:27;;;;;;;1.40;0.40;;;0.30;73.30;;;;;;6148641;23;20013;-81
2021/12/25 14:00:02;;;;;;;1.80;0.50;;;0.20;73.80;;;;;;6148154;23;20047;-82
2021/12/25 14:02:29;;;;;;;1.33;0.40;;;0.20;74.20;;;;;;6148763;23;20021;-82
2021/12/25 14:04:56;;;;;;;5.47;0.40;;;0.10;74.30;;;;;;6151733;23;20072;-82
2021/12/25 14:07:26;;;;;;;3.90;0.52;;;0.10;74.70;;;;;;6151864;23;20396;-82
2021/12/25 14:09:54;;;;;;;5.28;1.00;;;0.00;74.80;;;;;;6124969;23;20440;-82
2021/12/25 14:12:21;;;;;;;5.97;0.68;;;0.00;75.50;;;;;;6151347;23;20348;-82
2021/12/25 14:14:48;;;;;;;0.88;0.30;;;0.00;76.10;;;;;;6151646;23;20017;-82
2021/12/25 14:17:13;;;;;;;0.40;0.20;;;0.00;75.10;;;;;;6151962;23;20014;-82
2021/12/25 14:19:39;;;;;;;1.60;0.40;;;-0.10;75.90;;;;;;6151190;23;20018;-82
2021/12/25 14:22:06;;;;;;;1.17;0.50;;;-0.10;76.30;;;;;;6151784;23;20021;-82